Time;durP1;ratioP1;P1;durP2;ratioP2;P2;SDS_P1;SDS_P2;PMS_P1;PMS_P2;Temp;Humidity;BMP_temperature;BMP_pressure;BME280_temperature;BME280_humidity;BME280_pressure;Samples;Min_cycle;Max_cycle;Signal;HPM_P1;HPM_P2
2021/09/05 00:01:33;;;;;;;14.80;13.20;;;;;;;16.70;90.72;99461.00;5091739;28;20248;-73
2021/09/05 00:04:01;;;;;;;13.75;12.35;;;;;;;16.70;90.53;99453.69;5096600;28;20689;-73
2021/09/05 00:06:29;;;;;;;14.10;12.70;;;;;;;16.64;91.23;99455.09;5096089;28;20227;-72
2021/09/05 00:08:56;;;;;;;15.82;13.48;;;;;;;16.62;91.48;99448.03;5096700;28;20209;-73
2021/09/05 00:11:23;;;;;;;16.95;15.25;;;;;;;16.63;91.33;99444.34;5096308;28;20207;-74
2021/09/05 00:13:50;;;;;;;15.32;13.82;;;;;;;16.51;91.58;99448.97;5095981;28;20275;-74
2021/09/05 00:16:16;;;;;;;17.20;15.45;;;;;;;16.49;91.66;99447.41;5086801;28;20220;-72
2021/09/05 00:18:43;;;;;;;15.95;14.13;;;;;;;16.48;92.06;99446.50;5089577;28;20185;-72
2021/09/05 00:21:11;;;;;;;15.80;14.20;;;;;;;16.42;92.26;99442.47;5076253;28;20603;-72
2021/09/05 00:23:38;;;;;;;13.82;12.43;;;;;;;16.40;91.94;99440.88;5091871;28;20194;-72
2021/09/05 00:26:05;;;;;;;15.70;14.05;;;;;;;16.34;92.40;99446.81;5096036;28;20263;-72
2021/09/05 00:28:32;;;;;;;14.30;13.00;;;;;;;16.22;93.18;99437.88;5094128;28;20201;-73
2021/09/05 00:30:58;;;;;;;14.88;13.38;;;;;;;16.23;93.55;99445.00;5075591;28;20206;-73
2021/09/05 00:33:25;;;;;;;15.10;13.55;;;;;;;16.25;92.97;99440.31;5075954;28;20573;-73
2021/09/05 00:35:51;;;;;;;16.25;14.65;;;;;;;16.16;93.57;99446.53;5078164;28;20615;-72
2021/09/05 00:38:19;;;;;;;14.88;13.40;;;;;;;16.10;93.96;99431.63;5095792;28;20235;-72
2021/09/05 00:40:46;;;;;;;14.98;13.48;;;;;;;16.09;93.67;99434.44;5096038;28;20276;-73
2021/09/05 00:43:13;;;;;;;14.90;12.82;;;;;;;16.13;93.74;99439.50;5079425;28;20232;-73
2021/09/05 00:45:39;;;;;;;13.70;12.40;;;;;;;16.15;93.78;99437.50;5091919;28;20681;-73
2021/09/05 00:48:06;;;;;;;14.88;13.20;;;;;;;16.17;93.63;99445.53;5094799;28;20679;-73
2021/09/05 00:50:33;;;;;;;14.48;12.98;;;;;;;16.12;94.00;99445.91;5096155;28;20326;-73
2021/09/05 00:53:00;;;;;;;16.17;13.18;;;;;;;16.17;93.75;99443.69;5095964;28;20618;-73
2021/09/05 00:55:28;;;;;;;13.40;11.65;;;;;;;16.11;93.30;99441.47;5095275;28;20227;-73
2021/09/05 00:57:55;;;;;;;14.82;12.00;;;;;;;16.30;91.75;99446.22;5095687;28;20600;-73
2021/09/05 01:00:24;;;;;;;14.95;12.32;;;;;;;16.30;90.31;99448.06;5095650;28;20667;-73
2021/09/05 01:02:51;;;;;;;12.40;11.10;;;;;;;16.22;90.54;99459.59;5093482;28;20239;-73
2021/09/05 01:05:18;;;;;;;14.07;12.68;;;;;;;16.22;91.07;99451.44;5075190;28;20275;-73
2021/09/05 01:07:45;;;;;;;12.95;11.75;;;;;;;16.23;91.21;99455.88;5074932;28;20209;-73
2021/09/05 01:10:13;;;;;;;13.13;10.90;;;;;;;16.24;90.53;99458.47;5075450;28;20238;-73
2021/09/05 01:12:41;;;;;;;14.73;11.15;;;;;;;16.33;90.18;99453.28;5074943;28;20616;-73
2021/09/05 01:15:09;;;;;;;14.73;12.05;;;;;;;16.43;89.28;99463.19;5075773;28;20279;-73
2021/09/05 01:17:37;;;;;;;12.70;11.40;;;;;;;16.55;88.28;99458.59;5077118;28;20193;-73
2021/09/05 01:20:05;;;;;;;14.18;11.85;;;;;;;16.43;88.46;99460.50;5094865;28;20630;-73
2021/09/05 01:22:33;;;;;;;13.05;11.65;;;;;;;16.25;88.99;99462.91;5095171;28;20612;-73
2021/09/05 01:25:00;;;;;;;13.00;11.60;;;;;;;16.07;89.88;99463.59;5095264;28;20205;-73
2021/09/05 01:27:27;;;;;;;14.98;11.63;;;;;;;15.85;91.26;99465.34;5095102;28;20202;-73
2021/09/05 01:29:54;;;;;;;13.32;10.85;;;;;;;15.92;90.98;99466.59;5095272;28;20222;-73
2021/09/05 01:32:21;;;;;;;11.90;10.57;;;;;;;15.76;92.18;99476.97;5094705;28;20196;-73
2021/09/05 01:34:47;;;;;;;12.25;10.60;;;;;;;15.79;91.35;99469.44;5094591;28;20192;-72
2021/09/05 01:37:14;;;;;;;12.13;10.10;;;;;;;15.63;92.58;99472.50;5094486;28;20272;-73
2021/09/05 01:39:41;;;;;;;12.32;10.40;;;;;;;15.86;90.58;99471.66;5095009;28;20259;-72
2021/09/05 01:42:07;;;;;;;16.33;10.65;;;;;;;15.82;90.85;99476.47;5093311;28;20196;-73
2021/09/05 01:44:35;;;;;;;13.25;10.35;;;;;;;15.54;92.53;99481.41;5084653;28;20199;-73
2021/09/05 01:47:02;;;;;;;14.45;10.98;;;;;;;15.67;92.81;99483.09;5094829;28;20185;-73
2021/09/05 01:49:29;;;;;;;13.02;10.55;;;;;;;15.75;92.91;99480.69;5091383;28;20218;-73
2021/09/05 01:51:55;;;;;;;12.40;11.20;;;;;;;15.82;93.04;99485.47;5094588;28;20180;-73
2021/09/05 01:54:22;;;;;;;13.80;11.55;;;;;;;15.78;93.53;99483.13;5094498;28;20231;-73
2021/09/05 01:56:49;;;;;;;12.55;11.32;;;;;;;15.67;94.00;99486.72;5094654;28;20191;-73
2021/09/05 01:59:15;;;;;;;14.27;12.80;;;;;;;15.64;94.97;99489.66;5094381;28;20195;-73
2021/09/05 02:01:43;;;;;;;12.63;11.32;;;;;;;15.70;94.71;99488.31;5094143;28;20322;-73
2021/09/05 02:04:10;;;;;;;13.07;11.77;;;;;;;15.70;94.48;99489.16;5093419;28;20223;-73
2021/09/05 02:06:36;;;;;;;11.88;10.68;;;;;;;15.83;92.99;99483.63;5093953;28;20200;-73
2021/09/05 02:09:03;;;;;;;12.75;11.45;;;;;;;15.85;92.15;99492.50;5094351;28;20662;-73
2021/09/05 02:11:30;;;;;;;12.50;11.00;;;;;;;15.81;92.66;99486.47;5093797;28;20191;-73
2021/09/05 02:13:57;;;;;;;11.70;10.50;;;;;;;15.83;92.41;99479.06;5091734;28;20249;-73
2021/09/05 02:16:23;;;;;;;14.27;10.70;;;;;;;15.69;92.00;99475.72;5094349;28;20629;-73
2021/09/05 02:18:52;;;;;;;11.45;10.35;;;;;;;15.46;94.64;99486.56;5093660;28;20512;-73
2021/09/05 02:21:18;;;;;;;13.60;12.20;;;;;;;15.52;94.24;99482.50;5094106;28;20222;-72
2021/09/05 02:23:45;;;;;;;12.68;11.35;;;;;;;15.49;94.07;99483.63;5094276;28;20295;-73
2021/09/05 02:26:11;;;;;;;12.23;11.02;;;;;;;15.52;94.61;99480.66;5094216;28;20271;-72
2021/09/05 02:28:38;;;;;;;14.52;12.73;;;;;;;15.53;94.37;99481.50;5094212;28;20216;-74
2021/09/05 02:31:05;;;;;;;13.57;11.57;;;;;;;15.45;95.20;99490.28;5093400;28;20227;-73
2021/09/05 02:33:31;;;;;;;15.07;12.32;;;;;;;15.53;94.62;99486.94;5093450;28;20568;-73
2021/09/05 02:35:59;;;;;;;15.02;12.20;;;;;;;15.29;96.38;99489.78;5093911;28;20230;-73
2021/09/05 02:38:26;;;;;;;12.70;11.48;;;;;;;15.34;96.13;99484.84;5093897;28;20535;-74
2021/09/05 02:40:53;;;;;;;13.98;12.18;;;;;;;15.37;95.75;99480.03;5093971;28;20732;-74
2021/09/05 02:43:19;;;;;;;12.88;10.65;;;;;;;15.45;95.01;99484.84;5093969;28;20658;-74
2021/09/05 02:45:46;;;;;;;11.43;10.32;;;;;;;15.44;95.23;99493.97;5092698;28;20195;-73
2021/09/05 02:48:13;;;;;;;12.63;11.32;;;;;;;15.29;95.67;99489.78;5093421;28;20232;-74
2021/09/05 02:50:39;;;;;;;13.68;12.27;;;;;;;15.35;96.10;99494.69;5093846;28;20231;-74
2021/09/05 02:53:07;;;;;;;11.93;10.73;;;;;;;15.29;96.63;99490.66;5093643;28;20188;-73
2021/09/05 02:55:34;;;;;;;12.60;11.32;;;;;;;15.26;96.74;99484.59;5093961;28;20279;-73
2021/09/05 02:58:01;;;;;;;12.60;11.30;;;;;;;15.49;95.15;99491.75;5093656;28;20615;-73
2021/09/05 03:00:27;;;;;;;12.38;11.18;;;;;;;15.42;94.80;99496.81;5092874;28;20287;-73
2021/09/05 03:02:54;;;;;;;12.27;10.73;;;;;;;15.66;92.11;99484.97;5092856;28;20266;-73
2021/09/05 03:05:21;;;;;;;12.25;11.05;;;;;;;15.35;92.86;99486.56;5093610;28;20208;-72
2021/09/05 03:07:47;;;;;;;13.50;10.85;;;;;;;15.47;92.21;99491.03;5093680;28;20602;-73
2021/09/05 03:10:15;;;;;;;14.65;12.15;;;;;;;15.46;91.56;99496.56;5093398;28;20207;-73
2021/09/05 03:12:42;;;;;;;14.05;12.38;;;;;;;15.53;91.64;99487.78;5093342;28;20616;-72
2021/09/05 03:15:09;;;;;;;12.57;11.23;;;;;;;15.43;92.48;99487.69;5093382;28;20506;-72
2021/09/05 03:17:36;;;;;;;11.55;10.35;;;;;;;15.35;93.50;99490.16;5093572;28;20187;-73
2021/09/05 03:20:03;;;;;;;15.07;10.73;;;;;;;15.27;93.73;99486.31;5092935;28;20205;-73
2021/09/05 03:22:30;;;;;;;11.57;10.52;;;;;;;15.16;94.53;99488.03;5093015;28;20717;-73
2021/09/05 03:24:56;;;;;;;11.50;10.40;;;;;;;15.11;94.48;99487.53;5093093;28;20290;-73
2021/09/05 03:27:24;;;;;;;11.18;10.02;;;;;;;15.14;94.48;99492.72;5093113;28;20271;-73
2021/09/05 03:29:51;;;;;;;11.40;9.85;;;;;;;15.21;93.54;99488.53;5092973;28;20254;-73
2021/09/05 03:32:18;;;;;;;11.95;10.73;;;;;;;15.15;93.73;99485.44;5093038;28;20200;-73
2021/09/05 03:34:44;;;;;;;10.20;9.18;;;;;;;15.19;93.44;99490.47;5093263;28;20621;-73
2021/09/05 03:37:11;;;;;;;12.75;8.90;;;;;;;15.03;93.88;99489.97;5093111;28;20235;-73
2021/09/05 03:39:37;;;;;;;12.02;10.80;;;;;;;14.86;95.42;99496.72;5092894;28;20195;-73
2021/09/05 03:42:05;;;;;;;11.80;10.45;;;;;;;14.93;95.23;99491.69;5092916;28;20188;-73
2021/09/05 03:44:33;;;;;;;12.15;10.50;;;;;;;15.09;93.94;99491.34;5092383;28;20657;-73
2021/09/05 03:47:00;;;;;;;14.27;11.10;;;;;;;14.99;94.11;99502.03;5092638;28;20287;-72
2021/09/05 03:49:28;;;;;;;10.88;9.77;;;;;;;15.02;94.87;99491.81;5093198;28;20239;-73
2021/09/05 03:51:55;;;;;;;11.50;10.30;;;;;;;15.03;94.75;99498.09;5092667;28;20212;-73
2021/09/05 03:54:21;;;;;;;13.63;11.13;;;;;;;15.04;93.62;99497.13;5093195;28;20698;-73
2021/09/05 03:56:48;;;;;;;12.15;10.95;;;;;;;15.28;92.52;99493.47;5092980;28;20195;-73
2021/09/05 03:59:14;;;;;;;11.63;10.52;;;;;;;14.98;94.81;99493.03;5092898;28;20200;-73
2021/09/05 04:01:42;;;;;;;11.85;10.40;;;;;;;14.90;96.53;99497.34;5092829;28;20255;-73
2021/09/05 04:04:09;;;;;;;12.73;11.35;;;;;;;14.79;96.58;99496.34;5092936;28;20193;-73
2021/09/05 04:06:36;;;;;;;13.48;12.18;;;;;;;14.85;96.83;99502.25;5092252;28;20286;-73
2021/09/05 04:09:09;;;;;;;11.90;10.73;;;;;;;14.83;96.80;99496.94;5092981;28;20540;-73
2021/09/05 04:11:36;;;;;;;14.85;11.85;;;;;;;14.70;97.51;99494.34;5092509;28;20286;-73
2021/09/05 04:14:03;;;;;;;12.60;11.30;;;;;;;14.67;97.49;99496.41;5091792;28;20648;-73
2021/09/05 04:16:29;;;;;;;12.40;10.90;;;;;;;14.78;96.62;99505.44;5092886;28;20211;-73
2021/09/05 04:18:58;;;;;;;13.15;11.60;;;;;;;14.77;96.50;99502.84;5092103;28;20271;-72
2021/09/05 04:21:25;;;;;;;13.43;12.10;;;;;;;14.57;97.71;99513.38;5092743;28;20641;-72
2021/09/05 04:23:51;;;;;;;13.73;11.55;;;;;;;14.71;96.91;99509.59;5095029;28;20281;-72
2021/09/05 04:26:18;;;;;;;16.10;12.38;;;;;;;14.62;97.75;99510.31;5096427;28;20505;-72
2021/09/05 04:28:44;;;;;;;13.00;11.70;;;;;;;14.69;97.68;99508.84;5095850;28;20220;-73
2021/09/05 04:31:11;;;;;;;14.82;11.38;;;;;;;14.64;97.63;99515.63;5096050;28;20233;-73
2021/09/05 04:33:37;;;;;;;12.35;11.05;;;;;;;14.69;97.08;99514.28;5096335;28;20531;-73
2021/09/05 04:36:06;;;;;;;14.25;11.50;;;;;;;14.63;97.26;99517.47;5095715;28;20291;-74
2021/09/05 04:38:32;;;;;;;16.85;11.70;;;;;;;14.55;97.77;99511.75;5095676;28;20186;-72
2021/09/05 04:40:59;;;;;;;12.23;10.90;;;;;;;14.56;97.45;99518.88;5095711;28;20700;-73
2021/09/05 04:43:25;;;;;;;12.30;10.95;;;;;;;14.43;98.81;99520.78;5094790;28;20232;-73
2021/09/05 04:45:52;;;;;;;13.25;11.20;;;;;;;14.46;98.20;99526.81;5095166;28;20222;-73
2021/09/05 04:48:18;;;;;;;13.10;11.90;;;;;;;14.41;98.43;99533.59;5095218;28;20269;-73
2021/09/05 04:50:46;;;;;;;11.98;10.77;;;;;;;14.44;98.19;99536.91;5094980;28;20640;-73
2021/09/05 04:53:14;;;;;;;12.43;11.07;;;;;;;14.35;98.57;99538.47;5095447;28;20621;-73
2021/09/05 04:55:40;;;;;;;15.15;10.55;;;;;;;14.47;98.09;99543.94;5095170;28;20221;-73
2021/09/05 04:58:07;;;;;;;12.43;11.23;;;;;;;14.51;97.08;99550.84;5095106;28;20246;-73
2021/09/05 05:00:34;;;;;;;13.02;11.77;;;;;;;14.47;97.64;99541.22;5095109;28;20191;-73
2021/09/05 05:03:00;;;;;;;13.95;10.77;;;;;;;14.35;98.69;99543.88;5094546;28;20235;-73
2021/09/05 05:05:27;;;;;;;12.82;11.63;;;;;;;14.35;98.85;99554.72;5095285;28;20202;-73
2021/09/05 05:07:54;;;;;;;13.88;11.40;;;;;;;14.33;98.97;99545.84;5094572;28;20271;-73
2021/09/05 05:10:23;;;;;;;17.48;11.15;;;;;;;14.38;98.67;99548.19;5094747;28;20216;-73
2021/09/05 05:12:49;;;;;;;12.68;11.32;;;;;;;14.44;98.47;99549.59;5094734;28;20188;-73
2021/09/05 05:15:16;;;;;;;13.25;11.95;;;;;;;14.33;99.38;99556.66;5088710;28;20697;-73
2021/09/05 05:17:43;;;;;;;17.92;12.48;;;;;;;14.43;98.50;99546.03;5094902;28;20192;-73
2021/09/05 05:20:11;;;;;;;13.45;11.30;;;;;;;14.33;98.78;99556.66;5094741;28;20208;-73
2021/09/05 05:22:38;;;;;;;12.75;11.45;;;;;;;14.43;98.21;99553.31;5094379;28;20249;-73
2021/09/05 05:25:06;;;;;;;13.52;11.57;;;;;;;14.24;99.36;99565.47;5094211;28;20198;-73
2021/09/05 05:27:33;;;;;;;14.27;11.32;;;;;;;14.28;99.69;99561.56;5094971;28;20263;-73
2021/09/05 05:30:00;;;;;;;12.18;10.85;;;;;;;14.48;97.94;99567.34;5094227;28;20230;-73
2021/09/05 05:32:27;;;;;;;12.40;11.10;;;;;;;14.62;96.17;99569.91;5094704;28;20191;-73
2021/09/05 05:34:53;;;;;;;12.93;10.93;;;;;;;14.60;95.58;99574.59;5094005;28;20283;-72
2021/09/05 05:37:20;;;;;;;25.60;13.30;;;;;;;14.53;96.31;99576.00;5093755;28;20195;-72
2021/09/05 05:39:46;;;;;;;12.82;11.13;;;;;;;14.41;97.55;99575.06;5093470;28;20288;-72
2021/09/05 05:42:13;;;;;;;12.70;11.50;;;;;;;14.32;98.42;99579.31;5094493;28;20188;-73
2021/09/05 05:44:41;;;;;;;13.40;12.10;;;;;;;14.43;98.12;99589.38;5093552;28;20637;-74
2021/09/05 05:47:08;;;;;;;17.67;11.60;;;;;;;14.57;97.05;99596.50;5094238;28;20517;-74
2021/09/05 05:49:35;;;;;;;15.00;11.00;;;;;;;14.60;97.16;99599.84;5090058;28;20608;-74
2021/09/05 05:52:02;;;;;;;14.18;11.05;;;;;;;14.87;95.22;99598.72;5074333;28;20207;-74
2021/09/05 05:54:29;;;;;;;11.82;10.63;;;;;;;14.87;94.37;99600.59;5073721;28;20612;-74
2021/09/05 05:56:55;;;;;;;15.70;11.55;;;;;;;14.99;92.98;99594.22;5073652;28;20215;-74
2021/09/05 05:59:22;;;;;;;12.13;10.93;;;;;;;15.05;92.07;99591.03;5073908;28;20627;-74
2021/09/05 06:01:50;;;;;;;12.45;11.15;;;;;;;14.90;92.71;99598.53;5078250;28;20231;-74
2021/09/05 06:04:17;;;;;;;15.25;11.70;;;;;;;14.87;93.04;99592.47;5094061;28;20291;-73
2021/09/05 06:06:43;;;;;;;12.38;11.18;;;;;;;15.07;92.03;99596.34;5093828;28;20254;-72
2021/09/05 06:09:10;;;;;;;12.93;11.63;;;;;;;15.12;91.48;99591.44;5093933;28;20262;-74
2021/09/05 06:11:36;;;;;;;12.40;11.20;;;;;;;15.22;90.41;99597.91;5093485;28;20188;-73
2021/09/05 06:14:03;;;;;;;13.77;11.60;;;;;;;15.16;91.18;99604.66;5093852;28;20261;-73
2021/09/05 06:16:30;;;;;;;12.93;11.20;;;;;;;15.11;91.28;99595.16;5093467;28;20291;-73
2021/09/05 06:18:58;;;;;;;13.75;11.32;;;;;;;15.16;91.95;99598.38;5085599;28;20220;-73
2021/09/05 06:21:25;;;;;;;14.45;12.05;;;;;;;15.08;92.32;99604.38;5093236;28;20287;-73
2021/09/05 06:23:51;;;;;;;12.32;10.95;;;;;;;15.07;92.35;99605.34;5093898;28;20286;-73
2021/09/05 06:26:18;;;;;;;13.75;11.70;;;;;;;15.07;92.73;99610.78;5093766;28;20188;-73
2021/09/05 06:28:44;;;;;;;11.80;10.60;;;;;;;15.29;91.63;99607.28;5093785;28;20532;-72
2021/09/05 06:31:11;;;;;;;11.55;10.35;;;;;;;15.47;90.55;99612.22;5093367;28;20307;-73
2021/09/05 06:33:37;;;;;;;13.88;11.20;;;;;;;15.58;89.90;99613.16;5093523;28;20255;-72
2021/09/05 06:36:06;;;;;;;12.00;10.88;;;;;;;15.55;89.47;99618.78;5092657;28;20191;-73
2021/09/05 06:38:32;;;;;;;13.80;12.02;;;;;;;15.67;88.92;99618.81;5093032;28;20222;-73
2021/09/05 06:40:59;;;;;;;14.18;11.98;;;;;;;15.97;85.67;99619.13;5092862;28;20184;-72
2021/09/05 06:43:26;;;;;;;14.57;11.93;;;;;;;15.92;85.86;99624.06;5092630;28;20192;-72
2021/09/05 06:45:52;;;;;;;13.40;12.10;;;;;;;15.77;86.57;99622.56;5092103;28;20180;-72
2021/09/05 06:48:19;;;;;;;13.90;11.65;;;;;;;15.94;86.82;99619.38;5093195;28;20206;-73
2021/09/05 06:50:46;;;;;;;15.60;11.60;;;;;;;16.03;86.57;99617.75;5092456;28;20254;-73
2021/09/05 06:53:14;;;;;;;17.88;12.32;;;;;;;15.77;88.67;99619.88;5093002;28;20196;-73
2021/09/05 06:55:41;;;;;;;16.27;13.73;;;;;;;15.69;90.19;99615.00;5092654;28;20210;-73
2021/09/05 06:58:08;;;;;;;15.90;14.30;;;;;;;15.69;90.55;99619.56;5092570;28;20203;-73
2021/09/05 07:00:34;;;;;;;15.95;12.60;;;;;;;15.81;90.18;99616.78;5092670;28;20634;-73
2021/09/05 07:03:01;;;;;;;17.58;12.95;;;;;;;16.01;88.66;99617.06;5092459;28;20228;-73
2021/09/05 07:05:27;;;;;;;13.07;11.85;;;;;;;16.30;86.38;99613.81;5091105;28;20199;-73
2021/09/05 07:07:56;;;;;;;14.82;13.32;;;;;;;16.50;85.88;99617.59;5092183;28;20274;-72
2021/09/05 07:10:25;;;;;;;13.95;12.45;;;;;;;16.73;83.75;99616.53;5092735;28;20295;-72
2021/09/05 07:12:51;;;;;;;13.57;11.77;;;;;;;16.84;83.71;99613.81;5092603;28;20597;-72
2021/09/05 07:15:18;;;;;;;14.27;11.93;;;;;;;17.11;82.50;99617.94;5092038;28;20201;-72
2021/09/05 07:17:45;;;;;;;12.30;11.02;;;;;;;17.35;80.51;99619.56;5092377;28;20285;-72
2021/09/05 07:20:12;;;;;;;13.75;12.32;;;;;;;17.42;80.70;99618.88;5092378;28;20182;-71
2021/09/05 07:22:39;;;;;;;13.10;11.70;;;;;;;17.59;79.17;99620.16;5092516;28;20224;-72
2021/09/05 07:25:07;;;;;;;13.55;11.85;;;;;;;17.69;79.30;99620.22;5092389;28;20186;-73
2021/09/05 07:27:35;;;;;;;12.45;10.57;;;;;;;17.87;78.35;99629.53;5092010;28;20189;-73
2021/09/05 07:30:01;;;;;;;12.63;11.25;;;;;;;18.32;76.58;99622.84;5092465;28;20298;-74
2021/09/05 07:32:28;;;;;;;13.15;11.18;;;;;;;18.29;76.11;99625.81;5091711;28;20206;-73
2021/09/05 07:34:55;;;;;;;13.70;11.52;;;;;;;18.41;75.27;99629.34;5085633;28;20611;-72
2021/09/05 07:37:21;;;;;;;14.80;12.30;;;;;;;18.58;74.55;99631.38;5092238;28;20186;-73
2021/09/05 07:39:48;;;;;;;13.18;11.73;;;;;;;18.91;73.39;99632.06;5092409;28;20233;-72
2021/09/05 07:42:14;;;;;;;13.65;11.73;;;;;;;19.01;73.11;99632.06;5092437;28;20645;-72
2021/09/05 07:44:42;;;;;;;11.43;10.10;;;;;;;19.09;73.12;99632.22;5091847;28;20230;-72
2021/09/05 07:47:09;;;;;;;15.18;11.80;;;;;;;19.12;73.21;99631.91;5092472;28;20205;-72
2021/09/05 07:49:36;;;;;;;13.80;11.73;;;;;;;19.16;73.42;99630.63;5091950;28;20237;-73
2021/09/05 07:52:02;;;;;;;15.45;12.25;;;;;;;19.35;72.76;99641.53;5092709;28;20192;-73
2021/09/05 07:54:29;;;;;;;12.43;11.13;;;;;;;19.51;72.11;99643.66;5092453;28;20555;-73
2021/09/05 07:56:56;;;;;;;16.55;12.02;;;;;;;19.73;71.21;99633.47;5093868;28;20541;-73
2021/09/05 07:59:22;;;;;;;19.63;11.97;;;;;;;19.86;69.83;99635.91;5096860;28;20192;-74
2021/09/05 08:01:50;;;;;;;13.98;11.88;;;;;;;19.83;70.09;99644.38;5094893;28;20982;-74
2021/09/05 08:04:17;;;;;;;15.32;12.32;;;;;;;19.96;69.79;99647.66;5091860;28;20196;-72
2021/09/05 08:06:43;;;;;;;17.17;12.02;;;;;;;20.11;68.97;99648.91;5091365;28;20278;-72
2021/09/05 08:09:10;;;;;;;12.23;11.00;;;;;;;20.27;68.08;99642.81;5096536;28;20196;-73
2021/09/05 08:11:37;;;;;;;14.10;11.90;;;;;;;20.33;67.24;99652.28;5096222;28;20461;-72
2021/09/05 08:14:03;;;;;;;14.40;11.63;;;;;;;20.38;67.25;99645.34;5096171;28;20486;-72
2021/09/05 08:16:30;;;;;;;16.03;11.13;;;;;;;20.47;67.25;99649.06;5096429;28;20421;-73
2021/09/05 08:18:58;;;;;;;12.60;10.43;;;;;;;20.58;66.49;99650.75;5096535;28;20472;-73
2021/09/05 08:21:24;;;;;;;13.70;11.50;;;;;;;20.65;66.58;99656.47;5095836;28;20444;-74
2021/09/05 08:23:51;;;;;;;13.77;11.20;;;;;;;20.80;65.63;99655.81;5095719;28;20888;-73
2021/09/05 08:26:19;;;;;;;12.10;10.77;;;;;;;20.69;66.29;99647.81;5096260;28;20442;-73
2021/09/05 08:28:46;;;;;;;12.23;10.97;;;;;;;20.82;65.57;99648.28;5096289;28;20517;-73
2021/09/05 08:31:12;;;;;;;13.20;10.33;;;;;;;20.93;65.46;99654.56;5095747;28;20500;-73
2021/09/05 08:33:39;;;;;;;14.17;10.60;;;;;;;21.18;64.59;99648.31;5095628;28;20524;-73
2021/09/05 08:36:07;;;;;;;12.43;10.67;;;;;;;21.24;64.46;99650.44;5089363;28;20454;-73
2021/09/05 08:38:33;;;;;;;13.27;11.17;;;;;;;21.23;64.03;99653.31;5084567;28;20520;-74
2021/09/05 08:41:00;;;;;;;12.13;10.87;;;;;;;21.33;63.57;99661.50;5095717;28;20418;-73
2021/09/05 08:43:28;;;;;;;11.33;10.23;;;;;;;21.13;64.36;99667.09;5095669;28;20430;-73
2021/09/05 08:45:55;;;;;;;13.70;11.23;;;;;;;21.26;64.30;99665.88;5096132;28;20442;-74
2021/09/05 08:48:23;;;;;;;10.70;9.70;;;;;;;21.19;63.76;99666.50;5095410;28;20514;-74
2021/09/05 08:50:52;;;;;;;11.30;9.40;;;;;;;20.88;65.06;99663.25;5095719;28;20967;-73
2021/09/05 08:53:21;;;;;;;11.70;10.47;;;;;;;21.20;64.03;99668.19;5095659;28;20537;-73
2021/09/05 08:55:49;;;;;;;11.30;10.10;;;;;;;21.37;63.21;99661.00;5095641;28;20461;-74
2021/09/05 08:58:16;;;;;;;11.47;10.20;;;;;;;21.32;62.82;99657.88;5096014;28;20822;-74
2021/09/05 09:00:43;;;;;;;10.73;9.50;;;;;;;21.60;62.12;99663.31;5095687;28;20440;-74
2021/09/05 09:03:10;;;;;;;11.27;9.70;;;;;;;22.02;60.76;99665.31;5093807;28;20561;-73
2021/09/05 09:05:39;;;;;;;11.10;9.57;;;;;;;22.12;59.69;99663.34;5081327;28;20445;-73
2021/09/05 09:08:07;;;;;;;13.03;9.30;;;;;;;22.31;58.91;99673.22;5094479;28;20433;-73
2021/09/05 09:10:47;;;;;;;11.40;10.00;;;;;;;22.12;58.99;99667.97;5095081;28;20484;-73
2021/09/05 09:13:23;;;;;;;15.67;9.90;;;;;;;22.27;59.16;99667.22;5095609;28;20418;-75
2021/09/05 09:15:49;;;;;;;10.57;9.47;;;;;;;22.31;58.54;99669.63;5095466;28;20821;-74
2021/09/05 09:18:24;;;;;;;11.07;9.70;;;;;;;22.51;58.11;99679.34;5095444;28;20510;-75
2021/09/05 09:20:51;;;;;;;9.47;8.47;;;;;;;22.49;57.36;99682.25;5095354;28;20468;-75
2021/09/05 09:23:20;;;;;;;12.03;9.13;;;;;;;22.73;56.51;99666.06;5095242;28;20542;-75
2021/09/05 09:25:56;;;;;;;11.13;9.00;;;;;;;22.82;56.21;99676.06;5095513;28;20520;-74
2021/09/05 09:28:24;;;;;;;11.27;10.13;;;;;;;23.25;55.61;99666.75;5094772;28;20451;-74
2021/09/05 09:30:51;;;;;;;10.33;9.33;;;;;;;23.44;55.47;99667.44;5094789;28;20484;-75
2021/09/05 09:33:22;;;;;;;10.53;9.43;;;;;;;23.71;53.68;99669.84;5093616;28;20491;-75
2021/09/05 09:35:52;;;;;;;11.33;9.87;;;;;;;23.87;53.31;99663.50;5095518;28;20505;-75
2021/09/05 09:38:19;;;;;;;9.70;8.77;;;;;;;23.70;53.52;99667.28;5095171;28;20429;-75
2021/09/05 09:40:47;;;;;;;9.37;8.37;;;;;;;23.76;53.69;99665.75;5094847;28;20528;-75
2021/09/05 09:43:20;;;;;;;13.93;8.70;;;;;;;23.98;52.84;99664.22;5095102;28;20419;-75
2021/09/05 09:45:48;;;;;;;9.73;8.83;;;;;;;23.86;53.26;99664.56;5094662;28;20430;-75
2021/09/05 09:48:23;;;;;;;12.00;8.53;;;;;;;24.19;52.88;99661.75;5094114;28;20474;-75
2021/09/05 09:50:50;;;;;;;9.93;9.03;;;;;;;24.35;52.56;99664.47;5094654;28;20477;-75
2021/09/05 09:53:17;;;;;;;12.53;9.23;;;;;;;24.12;53.55;99668.97;5095151;28;20526;-75
2021/09/05 09:55:45;;;;;;;9.07;7.63;;;;;;;24.17;52.52;99668.44;5094365;28;20438;-74
2021/09/05 09:58:12;;;;;;;10.17;9.17;;;;;;;24.18;52.88;99664.69;5094604;28;20519;-73
2021/09/05 10:00:41;;;;;;;10.43;8.50;;;;;;;24.48;52.44;99672.19;5094368;28;20422;-74
2021/09/05 10:03:09;;;;;;;11.60;9.70;;;;;;;24.39;52.00;99661.34;5093180;28;21332;-74
2021/09/05 10:05:36;;;;;;;11.03;8.70;;;;;;;24.59;51.25;99665.44;5094313;28;20924;-74
2021/09/05 10:08:03;;;;;;;9.73;8.67;;;;;;;24.77;50.16;99668.78;5094043;28;20487;-74
2021/09/05 10:10:32;;;;;;;8.93;7.43;;;;;;;25.10;49.18;99665.00;5094238;28;20468;-74
2021/09/05 10:13:01;;;;;;;11.47;8.50;;;;;;;24.90;49.41;99659.13;5092830;28;20974;-74
2021/09/05 10:15:28;;;;;;;8.73;7.83;;;;;;;25.06;49.47;99667.28;5094435;28;20846;-75
2021/09/05 10:17:58;;;;;;;9.07;8.17;;;;;;;25.23;48.80;99651.50;5085529;28;20473;-74
2021/09/05 10:20:26;;;;;;;9.33;8.40;;;;;;;25.28;48.66;99665.63;5092905;28;20469;-74
2021/09/05 10:22:52;;;;;;;10.07;8.87;;;;;;;25.15;48.56;99654.31;5094023;28;20441;-75
2021/09/05 10:25:19;;;;;;;9.80;8.27;;;;;;;25.00;49.48;99658.88;5093895;28;20422;-75
2021/09/05 10:27:49;;;;;;;8.93;8.10;;;;;;;25.03;49.52;99661.25;5094015;28;20530;-75
2021/09/05 10:30:19;;;;;;;8.63;7.73;;;;;;;25.12;49.41;99658.28;5093935;28;20429;-76
2021/09/05 10:32:48;;;;;;;10.60;8.27;;;;;;;25.13;49.23;99662.75;5094013;28;20426;-74
2021/09/05 10:35:39;;;;;;;10.60;8.27;;;;;;;24.95;49.53;99656.66;5093370;28;20479;-74
2021/09/05 10:38:21;;;;;;;9.50;8.47;;;;;;;24.63;50.17;99665.94;5093948;28;20446;-74
2021/09/05 10:40:49;;;;;;;9.53;7.50;;;;;;;24.82;50.07;99653.63;5093142;28;20434;-75
2021/09/05 10:43:17;;;;;;;9.33;8.43;;;;;;;24.98;49.75;99656.28;5094108;28;20418;-75
2021/09/05 10:45:46;;;;;;;8.50;7.53;;;;;;;25.31;48.54;99664.41;5093992;28;20541;-75
2021/09/05 10:48:32;;;;;;;12.53;7.67;;;;;;;25.43;48.57;99654.66;5093579;28;20513;-75
2021/09/05 10:51:11;;;;;;;10.73;8.00;;;;;;;25.63;47.97;99654.16;5093453;28;20552;-75
2021/09/05 10:53:49;;;;;;;9.93;7.33;;;;;;;25.78;47.66;99655.91;5093752;28;20814;-75
2021/09/05 10:56:17;;;;;;;8.80;7.90;;;;;;;25.86;47.05;99649.44;5093711;28;20418;-75
2021/09/05 10:58:48;;;;;;;9.50;8.50;;;;;;;25.92;46.77;99651.50;5093627;28;20424;-75
2021/09/05 11:01:30;;;;;;;9.30;7.67;;;;;;;25.48;47.66;99654.94;5093621;28;20449;-74
2021/09/05 11:04:22;;;;;;;8.60;7.87;;;;;;;25.66;47.11;99651.03;5093692;28;20437;-74
2021/09/05 11:06:52;;;;;;;9.73;8.70;;;;;;;25.59;47.86;99653.66;5093335;28;20422;-74
2021/09/05 11:09:58;;;;;;;9.93;8.90;;;;;;;25.90;46.96;99645.31;5093063;28;20533;-74
2021/09/05 11:12:42;;;;;;;8.10;7.30;;;;;;;25.59;47.96;99648.16;5066827;28;20541;-74
2021/09/05 11:15:19;;;;;;;9.33;8.40;;;;;;;25.56;48.27;99646.63;5087361;28;20441;-74
2021/09/05 11:17:54;;;;;;;8.77;7.97;;;;;;;25.53;48.15;99646.13;5093345;28;20514;-74
2021/09/05 11:20:21;;;;;;;9.93;8.40;;;;;;;25.44;48.84;99639.84;5093705;28;20424;-74
2021/09/05 11:22:50;;;;;;;9.10;7.87;;;;;;;25.27;49.39;99646.50;5093690;28;20508;-74